createdAt,value
2017-04-15T00:00:01.946Z,1007.49
2017-04-15T00:01:14.489Z,1007.51
2017-04-15T00:02:27.036Z,1007.41
2017-04-15T00:03:39.579Z,1007.45
2017-04-15T00:04:52.103Z,1007.42
2017-04-15T00:06:04.641Z,1007.43
2017-04-15T00:07:17.246Z,1007.38
2017-04-15T00:08:30.020Z,1007.34
2017-04-15T00:09:42.184Z,1007.35
2017-04-15T00:10:54.729Z,1007.35
2017-04-15T00:12:07.254Z,1007.33
2017-04-15T00:13:19.502Z,1007.32
2017-04-15T00:14:31.768Z,1007.33
2017-04-15T00:15:44.293Z,1007.31
2017-04-15T00:16:56.838Z,1007.3
2017-04-15T00:18:09.398Z,1007.34
2017-04-15T00:19:21.927Z,1007.26
2017-04-15T00:20:34.456Z,1007.29
2017-04-15T00:21:46.671Z,1007.29
2017-04-15T00:22:59.461Z,1007.27
2017-04-15T00:24:11.985Z,1007.19
2017-04-15T00:25:24.556Z,1007.23
2017-04-15T00:26:37.055Z,1007.21
2017-04-15T00:27:49.309Z,1007.24
2017-04-15T00:29:01.835Z,1007.19
2017-04-15T00:30:14.340Z,1007.19
2017-04-15T00:31:26.887Z,1007.18
2017-04-15T00:32:39.415Z,1007.13
2017-04-15T00:33:51.957Z,1007.12
2017-04-15T00:35:04.474Z,1007.11
2017-04-15T00:36:16.969Z,1007.09
2017-04-15T00:37:29.518Z,1007.12
2017-04-15T00:38:42.061Z,1007.08
2017-04-15T00:39:54.602Z,1007.1
2017-04-15T00:41:06.995Z,1007.12
2017-04-15T00:42:19.523Z,1007.15
2017-04-15T00:43:32.046Z,1007.1
2017-04-15T00:44:44.568Z,1007.05
2017-04-15T00:45:56.804Z,1007.07
2017-04-15T00:47:09.353Z,1007.04
2017-04-15T00:48:21.914Z,1007.08
2017-04-15T00:49:34.429Z,1007.1
2017-04-15T00:50:46.926Z,1007.09
2017-04-15T00:51:59.465Z,1007.04
2017-04-15T00:53:12.055Z,1007.05
2017-04-15T00:54:24.626Z,1007.04
2017-04-15T00:55:37.233Z,1007.04
2017-04-15T00:56:49.776Z,1007.05
2017-04-15T00:58:02.322Z,1007.06
2017-04-15T00:59:14.583Z,1007.04
2017-04-15T01:00:27.137Z,1007.01
2017-04-15T01:01:39.657Z,1006.95
2017-04-15T01:02:51.879Z,1006.97
2017-04-15T01:04:04.453Z,1006.92
2017-04-15T01:05:16.995Z,1006.95
2017-04-15T01:06:29.522Z,1006.95
2017-04-15T01:07:41.737Z,1006.94
2017-04-15T01:08:54.260Z,1006.92
2017-04-15T01:10:06.906Z,1006.95
2017-04-15T01:11:19.451Z,1006.93
2017-04-15T01:12:32.299Z,1006.99
2017-04-15T01:13:44.846Z,1006.91
2017-04-15T01:14:57.380Z,1006.95
2017-04-15T01:16:09.900Z,1006.93
2017-04-15T01:17:22.359Z,1006.94
2017-04-15T01:18:34.905Z,1006.95
2017-04-15T01:19:47.427Z,1006.88
2017-04-15T01:20:59.663Z,1006.87
2017-04-15T01:22:12.194Z,1006.86
2017-04-15T01:23:24.737Z,1006.85
2017-04-15T01:24:37.283Z,1006.83
2017-04-15T01:25:49.822Z,1006.81
2017-04-15T01:27:02.173Z,1006.82
2017-04-15T01:28:14.613Z,1006.83
2017-04-15T01:29:27.170Z,1006.8
2017-04-15T01:30:39.688Z,1006.75
2017-04-15T01:31:51.909Z,1006.76
2017-04-15T01:33:04.429Z,1006.75
2017-04-15T01:34:16.989Z,1006.69
2017-04-15T01:35:29.504Z,1006.71
2017-04-15T01:36:42.014Z,1006.7
2017-04-15T01:37:54.543Z,1006.68
2017-04-15T01:39:07.381Z,1006.67
2017-04-15T01:40:19.598Z,1006.64
2017-04-15T01:41:32.125Z,1006.68
2017-04-15T01:42:44.653Z,1006.66
2017-04-15T01:43:57.314Z,1006.62
2017-04-15T01:45:09.835Z,1006.59
2017-04-15T01:46:22.331Z,1006.62
2017-04-15T01:47:34.880Z,1006.59
2017-04-15T01:48:47.129Z,1006.57
2017-04-15T01:49:59.671Z,1006.62
2017-04-15T01:51:11.589Z,1006.61
2017-04-15T01:52:23.811Z,1006.61
2017-04-15T01:53:36.333Z,1006.57
2017-04-15T01:54:48.862Z,1006.59
2017-04-15T01:56:01.419Z,1006.56
2017-04-15T01:57:13.952Z,1006.54
2017-04-15T01:58:26.158Z,1006.55
2017-04-15T01:59:38.386Z,1006.56
2017-04-15T02:00:50.907Z,1006.54
2017-04-15T02:02:03.433Z,1006.54
2017-04-15T02:03:15.950Z,1006.55
2017-04-15T02:04:28.476Z,1006.54
2017-04-15T02:05:41.019Z,1006.54
2017-04-15T02:06:53.216Z,1006.55
2017-04-15T02:08:05.761Z,1006.51
2017-04-15T02:09:18.307Z,1006.54
2017-04-15T02:10:30.842Z,1006.54
2017-04-15T02:11:43.648Z,1006.57
2017-04-15T02:12:56.188Z,1006.51
2017-04-15T02:14:08.742Z,1006.5
2017-04-15T02:15:21.308Z,1006.5
2017-04-15T02:16:33.910Z,1006.47
2017-04-15T02:17:46.434Z,1006.47
2017-04-15T02:18:58.975Z,1006.5
2017-04-15T02:20:11.202Z,1006.45
2017-04-15T02:21:23.737Z,1006.47
2017-04-15T02:22:36.309Z,1006.47
2017-04-15T02:23:48.532Z,1006.45
2017-04-15T02:25:01.076Z,1006.47
2017-04-15T02:26:13.598Z,1006.4
2017-04-15T02:27:26.109Z,1006.34
2017-04-15T02:28:38.658Z,1006.34
2017-04-15T02:29:51.205Z,1006.34
2017-04-15T02:31:03.122Z,1006.28
2017-04-15T02:32:15.822Z,1006.3
2017-04-15T02:33:28.651Z,1006.3
2017-04-15T02:34:41.197Z,1006.27
2017-04-15T02:35:53.719Z,1006.26
2017-04-15T02:37:06.239Z,1006.26
2017-04-15T02:38:18.784Z,1006.2
2017-04-15T02:39:31.031Z,1006.14
2017-04-15T02:40:43.550Z,1006.14
2017-04-15T02:41:56.063Z,1006.14
2017-04-15T02:43:08.288Z,1006.17
2017-04-15T02:44:20.515Z,1006.16
2017-04-15T02:45:33.185Z,1006.17
2017-04-15T02:46:45.956Z,1006.15
2017-04-15T02:47:58.673Z,1006.15
2017-04-15T02:49:11.197Z,1006.13
2017-04-15T02:50:23.711Z,1006.16
2017-04-15T02:51:36.211Z,1006.18
2017-04-15T02:52:48.428Z,1006.2
2017-04-15T02:54:00.977Z,1006.16
2017-04-15T02:55:13.203Z,1006.15
2017-04-15T02:56:25.744Z,1006.16
2017-04-15T02:57:38.242Z,1006.16
2017-04-15T02:58:50.769Z,1006.16
2017-04-15T03:00:02.985Z,1006.12
2017-04-15T03:01:15.202Z,1006.09
2017-04-15T03:02:27.452Z,1006.1
2017-04-15T03:03:40.147Z,1006.1
2017-04-15T03:04:52.665Z,1006.12
2017-04-15T03:06:05.440Z,1006.09
2017-04-15T03:07:18.011Z,1006.09
2017-04-15T03:08:30.274Z,1006.08
2017-04-15T03:09:42.491Z,1006.12
2017-04-15T03:10:55.024Z,1006.12
2017-04-15T03:12:07.566Z,1006.08
2017-04-15T03:13:20.066Z,1006.07
2017-04-15T03:14:32.603Z,1006.05
2017-04-15T03:15:45.124Z,1006
2017-04-15T03:16:57.625Z,1006
2017-04-15T03:18:10.121Z,1005.98
2017-04-15T03:19:22.459Z,1005.98
2017-04-15T03:20:34.982Z,1005.98
2017-04-15T03:21:47.485Z,1005.98
2017-04-15T03:22:59.711Z,1005.96
2017-04-15T03:24:12.244Z,1005.98
2017-04-15T03:25:24.754Z,1005.99
2017-04-15T03:26:37.288Z,1005.97
2017-04-15T03:27:49.813Z,1005.96
2017-04-15T03:29:02.355Z,1005.99
2017-04-15T03:30:14.900Z,1005.97
2017-04-15T03:31:27.421Z,1005.91
2017-04-15T03:32:39.947Z,1005.91
2017-04-15T03:33:52.467Z,1005.89
2017-04-15T03:35:04.992Z,1005.9
2017-04-15T03:36:17.194Z,1005.93
2017-04-15T03:37:29.708Z,1005.94
2017-04-15T03:38:42.543Z,1005.91
2017-04-15T03:39:55.089Z,1005.92
2017-04-15T03:41:07.613Z,1005.9
2017-04-15T03:42:20.135Z,1005.88
2017-04-15T03:43:32.661Z,1005.85
2017-04-15T03:44:45.458Z,1005.9
2017-04-15T03:45:58.010Z,1005.85
2017-04-15T03:47:10.576Z,1005.91
2017-04-15T03:48:23.100Z,1005.9
2017-04-15T03:49:35.635Z,1005.93
2017-04-15T03:50:48.164Z,1005.91
2017-04-15T03:52:00.684Z,1005.94
2017-04-15T03:53:12.923Z,1005.91
2017-04-15T03:54:25.504Z,1005.9
2017-04-15T03:55:38.101Z,1005.88
2017-04-15T03:56:50.632Z,1005.93
2017-04-15T03:58:03.144Z,1005.92
2017-04-15T03:59:15.681Z,1005.93
2017-04-15T04:00:28.226Z,1005.89
2017-04-15T04:01:40.473Z,1005.97
2017-04-15T04:02:52.993Z,1005.88
2017-04-15T04:04:05.517Z,1005.88
2017-04-15T04:05:17.712Z,1005.89
2017-04-15T04:06:30.204Z,1005.85
2017-04-15T04:07:42.730Z,1005.88
2017-04-15T04:08:55.274Z,1005.84
2017-04-15T04:10:07.826Z,1005.83
2017-04-15T04:11:20.383Z,1005.8
2017-04-15T04:12:32.889Z,1005.76
2017-04-15T04:13:45.662Z,1005.72
2017-04-15T04:14:58.186Z,1005.69
2017-04-15T04:16:10.392Z,1005.69
2017-04-15T04:17:22.900Z,1005.72
2017-04-15T04:18:35.429Z,1005.71
2017-04-15T04:19:47.957Z,1005.7
2017-04-15T04:20:59.879Z,1005.74
2017-04-15T04:22:12.111Z,1005.7
2017-04-15T04:23:24.633Z,1005.74
2017-04-15T04:24:36.843Z,1005.69
2017-04-15T04:25:49.361Z,1005.72
2017-04-15T04:27:01.892Z,1005.64
2017-04-15T04:28:14.408Z,1005.65
2017-04-15T04:29:27.153Z,1005.69
2017-04-15T04:30:39.099Z,1005.69
2017-04-15T04:31:51.602Z,1005.67
2017-04-15T04:33:04.043Z,1005.65
2017-04-15T04:34:16.287Z,1005.64
2017-04-15T04:35:28.811Z,1005.64
2017-04-15T04:36:41.338Z,1005.65
2017-04-15T04:37:53.855Z,1005.64
2017-04-15T04:39:06.671Z,1005.67
2017-04-15T04:40:19.195Z,1005.6
2017-04-15T04:41:31.738Z,1005.61
2017-04-15T04:42:44.281Z,1005.56
2017-04-15T04:43:56.833Z,1005.53
2017-04-15T04:45:09.100Z,1005.51
2017-04-15T04:46:21.599Z,1005.53
2017-04-15T04:47:34.097Z,1005.47
2017-04-15T04:48:46.631Z,1005.51
2017-04-15T04:49:58.862Z,1005.55
2017-04-15T04:51:11.098Z,1005.49
2017-04-15T04:52:23.629Z,1005.49
2017-04-15T04:53:36.177Z,1005.51
2017-04-15T04:54:48.723Z,1005.44
2017-04-15T04:56:01.256Z,1005.52
2017-04-15T04:57:13.760Z,1005.49
2017-04-15T04:58:26.281Z,1005.49
2017-04-15T04:59:38.841Z,1005.48
2017-04-15T05:00:51.376Z,1005.41
2017-04-15T05:02:03.917Z,1005.39
2017-04-15T05:03:16.118Z,1005.34
2017-04-15T05:04:28.841Z,1005.37
2017-04-15T05:05:41.508Z,1005.36
2017-04-15T05:06:54.052Z,1005.32
2017-04-15T05:08:06.575Z,1005.29
2017-04-15T05:09:18.797Z,1005.25
2017-04-15T05:10:31.340Z,1005.23
2017-04-15T05:11:43.845Z,1005.19
2017-04-15T05:12:56.359Z,1005.21
2017-04-15T05:14:08.906Z,1005.23
2017-04-15T05:15:21.169Z,1005.25
2017-04-15T05:16:33.698Z,1005.26
2017-04-15T05:17:46.232Z,1005.23
2017-04-15T05:18:58.766Z,1005.22
2017-04-15T05:20:11.310Z,1005.21
2017-04-15T05:21:23.606Z,1005.25
2017-04-15T05:22:36.028Z,1005.22
2017-04-15T05:23:48.645Z,1005.26
2017-04-15T05:25:00.894Z,1005.22
2017-04-15T05:26:13.582Z,1005.16
2017-04-15T05:27:26.135Z,1005.15
2017-04-15T05:28:38.657Z,1005.2
2017-04-15T05:29:51.205Z,1005.16
2017-04-15T05:31:03.736Z,1005.13
2017-04-15T05:32:15.962Z,1005.1
2017-04-15T05:33:28.468Z,1005.09
2017-04-15T05:34:41.001Z,1005.02
2017-04-15T05:35:53.507Z,1005.01
2017-04-15T05:37:05.743Z,1005.01
2017-04-15T05:38:18.554Z,1004.97
2017-04-15T05:39:31.096Z,1005
2017-04-15T05:40:43.622Z,1005.01
2017-04-15T05:41:56.119Z,1004.96
2017-04-15T05:43:08.654Z,1004.96
2017-04-15T05:44:21.417Z,1004.98
2017-04-15T05:45:33.949Z,1004.95
2017-04-15T05:46:46.175Z,1004.95
2017-04-15T05:47:58.084Z,1004.85
2017-04-15T05:49:10.630Z,1004.9
2017-04-15T05:50:23.176Z,1004.95
2017-04-15T05:51:35.727Z,1004.88
2017-04-15T05:52:48.248Z,1004.86
2017-04-15T05:54:00.775Z,1004.9
2017-04-15T05:55:13.320Z,1004.82
2017-04-15T05:56:25.843Z,1004.86
2017-04-15T05:57:38.386Z,1004.84
2017-04-15T05:58:50.926Z,1004.8
2017-04-15T06:00:03.703Z,1004.76
2017-04-15T06:01:15.943Z,1004.74
2017-04-15T06:02:28.464Z,1004.75
2017-04-15T06:03:40.711Z,1004.67
2017-04-15T06:04:53.413Z,1004.7
2017-04-15T06:06:05.952Z,1004.64
2017-04-15T06:07:18.149Z,1004.64
2017-04-15T06:08:30.695Z,1004.59
2017-04-15T06:09:43.217Z,1004.57
2017-04-15T06:10:55.766Z,1004.55
2017-04-15T06:12:08.299Z,1004.55
2017-04-15T06:13:20.827Z,1004.57
2017-04-15T06:14:33.369Z,1004.51
2017-04-15T06:15:45.911Z,1004.49
2017-04-15T06:16:58.442Z,1004.44
2017-04-15T06:18:10.965Z,1004.45
2017-04-15T06:19:23.502Z,1004.46
2017-04-15T06:20:36.048Z,1004.4
2017-04-15T06:21:48.576Z,1004.43
2017-04-15T06:23:01.123Z,1004.41
2017-04-15T06:24:13.694Z,1004.4
2017-04-15T06:25:26.269Z,1004.38
2017-04-15T06:26:39.081Z,1004.39
2017-04-15T06:27:51.086Z,1004.39
2017-04-15T06:29:03.652Z,1004.45
2017-04-15T06:30:16.172Z,1004.44
2017-04-15T06:31:28.718Z,1004.44
2017-04-15T06:32:41.237Z,1004.47
2017-04-15T06:33:53.790Z,1004.47
2017-04-15T06:35:06.340Z,1004.47
2017-04-15T06:36:18.874Z,1004.51
2017-04-15T06:37:31.103Z,1004.56
2017-04-15T06:38:43.683Z,1004.55
2017-04-15T06:39:56.191Z,1004.52
2017-04-15T06:41:08.733Z,1004.5
2017-04-15T06:42:21.283Z,1004.52
2017-04-15T06:43:34.081Z,1004.48
2017-04-15T06:44:46.588Z,1004.49
2017-04-15T06:45:59.122Z,1004.46
2017-04-15T06:47:11.372Z,1004.46
2017-04-15T06:48:23.961Z,1004.46
2017-04-15T06:49:36.210Z,1004.46
2017-04-15T06:50:48.925Z,1004.45
2017-04-15T06:52:01.454Z,1004.44
2017-04-15T06:53:13.717Z,1004.42
2017-04-15T06:54:26.283Z,1004.36
2017-04-15T06:55:38.833Z,1004.37
2017-04-15T06:56:51.329Z,1004.38
2017-04-15T06:58:03.851Z,1004.39
2017-04-15T06:59:16.072Z,1004.43
2017-04-15T07:00:28.592Z,1004.38
2017-04-15T07:01:41.134Z,1004.43
2017-04-15T07:02:53.663Z,1004.41
2017-04-15T07:04:06.187Z,1004.39
2017-04-15T07:05:18.425Z,1004.36
2017-04-15T07:06:30.947Z,1004.32
2017-04-15T07:07:43.513Z,1004.29
2017-04-15T07:08:55.939Z,1004.26
2017-04-15T07:10:08.438Z,1004.19
2017-04-15T07:11:21.255Z,1004.16
2017-04-15T07:12:34.027Z,1004.08
2017-04-15T07:13:46.548Z,1004.04
2017-04-15T07:14:59.123Z,1004.02
2017-04-15T07:16:11.667Z,1003.98
2017-04-15T07:17:24.189Z,1003.97
2017-04-15T07:18:36.427Z,1003.94
2017-04-15T07:19:48.977Z,1003.94
2017-04-15T07:21:01.498Z,1003.99
2017-04-15T07:22:14.299Z,1003.94
2017-04-15T07:23:26.844Z,1003.98
2017-04-15T07:24:39.427Z,1003.94
2017-04-15T07:25:51.949Z,1003.96
2017-04-15T07:27:04.476Z,1003.94
2017-04-15T07:28:17.000Z,1003.93
2017-04-15T07:29:29.773Z,1003.93
2017-04-15T07:30:42.320Z,1003.9
2017-04-15T07:31:54.864Z,1003.87
2017-04-15T07:33:07.341Z,1003.87
2017-04-15T07:34:19.857Z,1003.84
2017-04-15T07:35:32.394Z,1003.79
2017-04-15T07:36:44.940Z,1003.71
2017-04-15T07:37:57.148Z,1003.76
2017-04-15T07:39:09.692Z,1003.84
2017-04-15T07:40:22.213Z,1003.83
2017-04-15T07:41:34.756Z,1003.91
2017-04-15T07:42:47.299Z,1003.92
2017-04-15T07:43:59.841Z,1003.82
2017-04-15T07:45:12.390Z,1003.8
2017-04-15T07:46:24.939Z,1003.74
2017-04-15T07:47:37.176Z,1003.72
2017-04-15T07:48:49.958Z,1003.8
2017-04-15T07:50:02.503Z,1003.82
2017-04-15T07:51:14.425Z,1003.78
2017-04-15T07:52:27.069Z,1003.8
2017-04-15T07:53:39.334Z,1003.76
2017-04-15T07:54:51.860Z,1003.74
2017-04-15T07:56:04.079Z,1003.73
2017-04-15T07:57:16.303Z,1003.73
2017-04-15T07:58:28.850Z,1003.71
2017-04-15T07:59:41.344Z,1003.77
2017-04-15T08:00:53.542Z,1003.74
2017-04-15T08:02:06.071Z,1003.68
2017-04-15T08:03:18.605Z,1003.66
2017-04-15T08:04:31.126Z,1003.68
2017-04-15T08:05:43.663Z,1003.72
2017-04-15T08:06:56.195Z,1003.71
2017-04-15T08:08:08.712Z,1003.74
2017-04-15T08:09:20.938Z,1003.72
2017-04-15T08:10:33.560Z,1003.74
2017-04-15T08:11:46.055Z,1003.75
2017-04-15T08:12:58.606Z,1003.72
2017-04-15T08:14:11.151Z,1003.69
2017-04-15T08:15:23.669Z,1003.7
2017-04-15T08:16:36.237Z,1003.72
2017-04-15T08:17:48.772Z,1003.71
2017-04-15T08:19:01.328Z,1003.73
2017-04-15T08:20:13.575Z,1003.66
2017-04-15T08:21:26.072Z,1003.64
2017-04-15T08:22:38.596Z,1003.67
2017-04-15T08:23:51.153Z,1003.7
2017-04-15T08:25:03.681Z,1003.62
2017-04-15T08:26:16.202Z,1003.65
2017-04-15T08:27:28.727Z,1003.69
2017-04-15T08:28:41.273Z,1003.7
2017-04-15T08:29:53.789Z,1003.65
2017-04-15T08:31:06.478Z,1003.68
2017-04-15T08:32:18.686Z,1003.64
2017-04-15T08:33:31.223Z,1003.77
2017-04-15T08:34:43.448Z,1003.79
2017-04-15T08:35:55.990Z,1003.85
2017-04-15T08:37:08.215Z,1003.72
2017-04-15T08:38:20.736Z,1003.61
2017-04-15T08:39:33.278Z,1003.66
2017-04-15T08:40:45.523Z,1003.61
2017-04-15T08:41:58.051Z,1003.65
2017-04-15T08:43:10.837Z,1003.6
2017-04-15T08:44:23.362Z,1003.66
2017-04-15T08:45:35.915Z,1003.58
2017-04-15T08:46:48.453Z,1003.56
2017-04-15T08:48:00.996Z,1003.6
2017-04-15T08:49:13.629Z,1003.61
2017-04-15T08:50:26.175Z,1003.54
2017-04-15T08:51:38.736Z,1003.53
2017-04-15T08:52:51.287Z,1003.61
2017-04-15T08:54:03.833Z,1003.58
2017-04-15T08:55:16.383Z,1003.6
2017-04-15T08:56:28.624Z,1003.71
2017-04-15T08:57:41.150Z,1003.68
2017-04-15T08:58:53.691Z,1003.58
2017-04-15T09:00:06.461Z,1003.58
2017-04-15T09:01:18.713Z,1003.52
2017-04-15T09:02:31.257Z,1003.55
2017-04-15T09:03:43.496Z,1003.53
2017-04-15T09:04:56.022Z,1003.53
2017-04-15T09:06:08.569Z,1003.59
2017-04-15T09:07:21.124Z,1003.36
2017-04-15T09:08:33.805Z,1003.46
2017-04-15T09:09:46.406Z,1003.51
2017-04-15T09:10:59.042Z,1003.53
2017-04-15T09:12:11.546Z,1003.43
2017-04-15T09:13:24.095Z,1003.33
2017-04-15T09:14:36.639Z,1003.39
2017-04-15T09:15:49.188Z,1003.37
2017-04-15T09:17:01.709Z,1003.35
2017-04-15T09:18:13.634Z,1003.22
2017-04-15T09:19:26.180Z,1003.25
2017-04-15T09:20:38.717Z,1003.21
2017-04-15T09:21:51.259Z,1003.37
2017-04-15T09:23:03.485Z,1003.38
2017-04-15T09:24:15.711Z,1003.35
2017-04-15T09:25:28.243Z,1003.32
2017-04-15T09:26:41.074Z,1003.35
2017-04-15T09:27:53.611Z,1003.3
2017-04-15T09:29:06.160Z,1003.24
2017-04-15T09:30:18.682Z,1003.22
2017-04-15T09:31:31.233Z,1003.35
2017-04-15T09:32:43.780Z,1003.36
2017-04-15T09:33:55.997Z,1003.3
2017-04-15T09:35:08.511Z,1003.27
2017-04-15T09:36:21.048Z,1003.23
2017-04-15T09:37:33.585Z,1003.15
2017-04-15T09:38:46.136Z,1003.16
2017-04-15T09:39:58.680Z,1003.16
2017-04-15T09:41:11.222Z,1003.24
2017-04-15T09:42:23.444Z,1003.31
2017-04-15T09:43:35.986Z,1003.48
2017-04-15T09:44:48.614Z,1003.29
2017-04-15T09:46:01.164Z,1003.21
2017-04-15T09:47:13.803Z,1003.2
2017-04-15T09:48:26.641Z,1003.24
2017-04-15T09:49:39.172Z,1003.25
2017-04-15T09:50:51.423Z,1003.25
2017-04-15T09:52:03.937Z,1003.25
2017-04-15T09:53:16.466Z,1003.23
2017-04-15T09:54:28.995Z,1003.27
2017-04-15T09:55:41.524Z,1003.26
2017-04-15T09:56:54.051Z,1003.3
2017-04-15T09:58:06.269Z,1003.34
2017-04-15T09:59:18.439Z,1003.27
2017-04-15T10:00:30.959Z,1003.18
2017-04-15T10:01:43.178Z,1003.11
2017-04-15T10:02:55.724Z,1003.1
2017-04-15T10:04:07.950Z,1003.12
2017-04-15T10:05:20.268Z,1003.13
2017-04-15T10:06:32.791Z,1003.13
2017-04-15T10:07:45.025Z,1003.12
2017-04-15T10:08:57.533Z,1003.07
2017-04-15T10:10:10.058Z,1003
2017-04-15T10:11:22.599Z,1002.98
2017-04-15T10:12:35.124Z,1003.02
2017-04-15T10:13:47.666Z,1003.04
2017-04-15T10:15:00.187Z,1003.01
2017-04-15T10:16:12.422Z,1002.99
2017-04-15T10:17:24.975Z,1003.03
2017-04-15T10:18:37.501Z,1002.99
2017-04-15T10:19:50.023Z,1002.94
2017-04-15T10:21:02.538Z,1003.06
2017-04-15T10:22:15.390Z,1002.97
2017-04-15T10:23:28.350Z,1002.96
2017-04-15T10:24:41.082Z,1003.01
2017-04-15T10:25:53.799Z,1002.98
2017-04-15T10:27:06.318Z,1002.95
2017-04-15T10:28:18.864Z,1002.84
2017-04-15T10:29:31.412Z,1002.84
2017-04-15T10:30:43.933Z,1002.76
2017-04-15T10:31:56.451Z,1002.79
2017-04-15T10:33:08.975Z,1002.85
2017-04-15T10:34:21.218Z,1002.89
2017-04-15T10:35:33.718Z,1002.88
2017-04-15T10:36:45.959Z,1002.78
2017-04-15T10:37:58.480Z,1002.82
2017-04-15T10:39:11.008Z,1002.8
2017-04-15T10:40:23.276Z,1002.8
2017-04-15T10:41:35.496Z,1002.82
2017-04-15T10:42:48.060Z,1002.74
2017-04-15T10:44:00.610Z,1002.68
2017-04-15T10:45:13.326Z,1002.81
2017-04-15T10:46:25.830Z,1002.76
2017-04-15T10:47:38.073Z,1002.76
2017-04-15T10:48:50.616Z,1002.88
2017-04-15T10:50:02.863Z,1002.75
2017-04-15T10:51:15.385Z,1002.73
2017-04-15T10:52:27.928Z,1002.67
2017-04-15T10:53:40.473Z,1002.69
2017-04-15T10:54:52.993Z,1002.73
2017-04-15T10:56:05.512Z,1002.66
2017-04-15T10:57:17.741Z,1002.76
2017-04-15T10:58:30.261Z,1002.89
2017-04-15T10:59:42.550Z,1002.85
2017-04-15T11:00:55.109Z,1002.89
2017-04-15T11:02:07.626Z,1002.82
2017-04-15T11:03:20.291Z,1002.75
2017-04-15T11:04:32.808Z,1002.73
2017-04-15T11:05:45.343Z,1002.71
2017-04-15T11:06:57.850Z,1002.67
2017-04-15T11:08:10.354Z,1002.66
2017-04-15T11:09:22.880Z,1002.65
2017-04-15T11:10:35.398Z,1002.65
2017-04-15T11:11:47.941Z,1002.51
2017-04-15T11:13:00.461Z,1002.65
2017-04-15T11:14:12.984Z,1002.63
2017-04-15T11:15:25.534Z,1002.55
2017-04-15T11:16:37.779Z,1002.56
2017-04-15T11:17:50.325Z,1002.56
2017-04-15T11:19:02.890Z,1002.56
2017-04-15T11:20:15.467Z,1002.54
2017-04-15T11:21:28.213Z,1002.5
2017-04-15T11:22:40.438Z,1002.49
2017-04-15T11:23:52.929Z,1002.48
2017-04-15T11:25:05.475Z,1002.46
2017-04-15T11:26:18.016Z,1002.46
2017-04-15T11:27:30.543Z,1002.45
2017-04-15T11:28:43.108Z,1002.42
2017-04-15T11:29:55.633Z,1002.44
2017-04-15T11:31:07.855Z,1002.4
2017-04-15T11:32:20.076Z,1002.43
2017-04-15T11:33:32.617Z,1002.41
2017-04-15T11:34:45.138Z,1002.43
2017-04-15T11:35:57.638Z,1002.38
2017-04-15T11:37:09.876Z,1002.37
2017-04-15T11:38:22.111Z,1002.45
2017-04-15T11:39:34.622Z,1002.42
2017-04-15T11:40:47.160Z,1002.45
2017-04-15T11:41:59.718Z,1002.42
2017-04-15T11:43:12.330Z,1002.31
2017-04-15T11:44:24.363Z,1002.34
2017-04-15T11:45:36.931Z,1002.3
2017-04-15T11:46:49.447Z,1002.32
2017-04-15T11:48:01.669Z,1002.38
2017-04-15T11:49:14.192Z,1002.49
2017-04-15T11:50:26.410Z,1002.41
2017-04-15T11:51:38.963Z,1002.36
2017-04-15T11:52:51.527Z,1002.35
2017-04-15T11:54:04.299Z,1002.41
2017-04-15T11:55:16.836Z,1002.41
2017-04-15T11:56:29.366Z,1002.29
2017-04-15T11:57:41.885Z,1002.37
2017-04-15T11:58:54.449Z,1002.43
2017-04-15T12:00:06.995Z,1002.42
2017-04-15T12:01:19.458Z,1002.43
2017-04-15T12:02:32.043Z,1002.44
2017-04-15T12:03:44.573Z,1002.5
2017-04-15T12:04:57.154Z,1002.39
2017-04-15T12:06:09.678Z,1002.43
2017-04-15T12:07:22.204Z,1002.4
2017-04-15T12:08:34.724Z,1002.34
2017-04-15T12:09:47.249Z,1002.34
2017-04-15T12:10:59.769Z,1002.41
2017-04-15T12:12:12.316Z,1002.37
2017-04-15T12:13:24.525Z,1002.45
2017-04-15T12:14:37.028Z,1002.43
2017-04-15T12:15:49.553Z,1002.32
2017-04-15T12:17:02.094Z,1002.28
2017-04-15T12:18:12.794Z,1002.39
2017-04-15T12:19:25.334Z,1002.39
2017-04-15T12:20:38.134Z,1002.36
2017-04-15T12:21:50.633Z,1002.44
2017-04-15T12:23:03.203Z,1002.5
2017-04-15T12:24:15.726Z,1002.47
2017-04-15T12:25:27.920Z,1002.49
2017-04-15T12:26:40.466Z,1002.48
2017-04-15T12:27:53.008Z,1002.37
2017-04-15T12:29:05.550Z,1002.29
2017-04-15T12:30:18.080Z,1002.32
2017-04-15T12:31:30.579Z,1002.38
2017-04-15T12:32:43.135Z,1002.22
2017-04-15T12:33:55.689Z,1002.27
2017-04-15T12:35:08.184Z,1002.22
2017-04-15T12:36:20.136Z,1002.21
2017-04-15T12:37:32.661Z,1001.98
2017-04-15T12:38:43.676Z,1001.96
2017-04-15T12:39:56.213Z,1002.05
2017-04-15T12:41:08.459Z,1002.16
2017-04-15T12:42:20.967Z,1002.1
2017-04-15T12:43:33.548Z,1001.88
2017-04-15T12:44:46.054Z,1001.74
2017-04-15T12:45:58.603Z,1001.83
2017-04-15T12:47:11.146Z,1001.76
2017-04-15T12:48:22.172Z,1001.85
2017-04-15T12:49:34.413Z,1001.95
2017-04-15T12:50:46.977Z,1001.85
2017-04-15T12:51:59.530Z,1001.92
2017-04-15T12:53:12.094Z,1001.9
2017-04-15T12:54:24.346Z,1001.75
2017-04-15T12:55:36.918Z,1001.69
2017-04-15T12:56:49.457Z,1001.64
2017-04-15T12:58:01.963Z,1002.02
2017-04-15T12:59:14.423Z,1002.6
2017-04-15T13:00:26.973Z,1002.64
2017-04-15T13:01:39.569Z,1002.64
2017-04-15T13:02:52.118Z,1002.6
2017-04-15T13:04:04.641Z,1002.46
2017-04-15T13:05:16.887Z,1002.48
2017-04-15T13:06:29.411Z,1002.5
2017-04-15T13:07:41.932Z,1002.48
2017-04-15T13:08:54.444Z,1002.51
2017-04-15T13:10:06.968Z,1002.44
2017-04-15T13:11:19.212Z,1002.4
2017-04-15T13:12:31.410Z,1002.38
2017-04-15T13:13:43.934Z,1002.37
2017-04-15T13:14:56.454Z,1002.33
2017-04-15T13:16:08.999Z,1002.39
2017-04-15T13:17:21.242Z,1002.35
2017-04-15T13:18:33.764Z,1002.4
2017-04-15T13:19:46.036Z,1002.55
2017-04-15T13:20:58.586Z,1002.6
2017-04-15T13:22:11.117Z,1002.5
2017-04-15T13:23:23.737Z,1002.45
2017-04-15T13:24:36.266Z,1002.31
2017-04-15T13:25:48.791Z,1002.23
2017-04-15T13:27:01.325Z,1002.3
2017-04-15T13:28:13.855Z,1002.36
2017-04-15T13:29:26.403Z,1002.28
2017-04-15T13:30:38.946Z,1002.18
2017-04-15T13:31:51.466Z,1002.15
2017-04-15T13:33:03.984Z,1002.11
2017-04-15T13:34:16.527Z,1002.16
2017-04-15T13:35:29.083Z,1002.15
2017-04-15T13:36:41.605Z,1002.09
2017-04-15T13:37:54.149Z,1002.1
2017-04-15T13:39:06.697Z,1002.05
2017-04-15T13:40:19.231Z,1002.08
2017-04-15T13:41:31.858Z,1002.1
2017-04-15T13:42:43.855Z,1002.13
2017-04-15T13:43:56.393Z,1002.19
2017-04-15T13:45:08.925Z,1002.18
2017-04-15T13:46:21.446Z,1002.1
2017-04-15T13:47:34.014Z,1002.14
2017-04-15T13:48:46.512Z,1002.19
2017-04-15T13:49:58.731Z,1002.27
2017-04-15T13:51:10.954Z,1002.21
2017-04-15T13:52:23.505Z,1002.24
2017-04-15T13:53:36.046Z,1002.32
2017-04-15T13:54:48.584Z,1002.27
2017-04-15T13:56:01.139Z,1002.18
2017-04-15T13:57:13.724Z,1002.1
2017-04-15T13:58:26.271Z,1002.11
2017-04-15T13:59:39.025Z,1002.1
2017-04-15T14:00:51.818Z,1002.07
2017-04-15T14:02:04.314Z,1002.01
2017-04-15T14:03:16.836Z,1001.99
2017-04-15T14:04:29.360Z,1001.95
2017-04-15T14:05:41.897Z,1001.93
2017-04-15T14:06:54.448Z,1001.95
2017-04-15T14:08:06.969Z,1001.94
2017-04-15T14:09:19.736Z,1002.02
2017-04-15T14:10:32.278Z,1002.02
2017-04-15T14:11:44.762Z,1001.98
2017-04-15T14:12:57.002Z,1001.98
2017-04-15T14:14:09.578Z,1002.08
2017-04-15T14:15:22.099Z,1002.08
2017-04-15T14:16:34.757Z,1002.02
2017-04-15T14:17:47.515Z,1002.08
2017-04-15T14:19:00.061Z,1002.03
2017-04-15T14:20:12.861Z,1002.11
2017-04-15T14:21:25.095Z,1002.14
2017-04-15T14:22:37.621Z,1002.16
2017-04-15T14:23:50.119Z,1002.14
2017-04-15T14:25:02.637Z,1002.06
2017-04-15T14:26:14.885Z,1002.08
2017-04-15T14:27:27.406Z,1002.06
2017-04-15T14:28:39.927Z,1002.02
2017-04-15T14:29:52.473Z,1002.09
2017-04-15T14:31:04.716Z,1002.11
2017-04-15T14:32:17.264Z,1002.01
2017-04-15T14:33:29.800Z,1002.1
2017-04-15T14:34:42.426Z,1002.09
2017-04-15T14:35:54.954Z,1002.17
2017-04-15T14:37:07.623Z,1002.16
2017-04-15T14:38:19.921Z,1002.15
2017-04-15T14:39:32.463Z,1002.09